createdAt,value
2016-12-04T00:00:45.719Z,20.41
2016-12-04T00:01:55.436Z,20.33
2016-12-04T00:03:05.150Z,20.36
2016-12-04T00:04:15.489Z,20.41
2016-12-04T00:05:25.894Z,20.41
2016-12-04T00:06:35.663Z,20.35
2016-12-04T00:07:45.821Z,20.38
2016-12-04T00:08:56.162Z,20.35
2016-12-04T00:10:06.515Z,20.33
2016-12-04T00:11:16.834Z,20.38
2016-12-04T00:12:27.186Z,20.36
2016-12-04T00:13:37.599Z,20.39
2016-12-04T00:14:47.009Z,20.29
2016-12-04T00:15:57.141Z,20.39
2016-12-04T00:17:07.529Z,20.29
2016-12-04T00:18:16.942Z,20.29
2016-12-04T00:19:27.291Z,20.35
2016-12-04T00:20:37.598Z,20.35
2016-12-04T00:21:47.039Z,20.36
2016-12-04T00:22:57.427Z,20.36
2016-12-04T00:24:07.492Z,20.31
2016-12-04T00:25:17.262Z,20.35
2016-12-04T00:26:27.346Z,20.36
2016-12-04T00:27:37.710Z,20.33
2016-12-04T00:28:48.052Z,20.36
2016-12-04T00:29:58.477Z,20.36
2016-12-04T00:31:08.518Z,20.31
2016-12-04T00:32:18.968Z,20.29
2016-12-04T00:33:28.678Z,20.36
2016-12-04T00:34:38.454Z,20.39
2016-12-04T00:35:48.476Z,20.29
2016-12-04T00:36:58.922Z,20.41
2016-12-04T00:38:09.262Z,20.36
2016-12-04T00:39:19.592Z,20.35
2016-12-04T00:40:29.927Z,20.35
2016-12-04T00:41:40.316Z,20.35
2016-12-04T00:42:50.331Z,20.36
2016-12-04T00:44:00.464Z,20.33
2016-12-04T00:45:10.812Z,20.39
2016-12-04T00:46:20.911Z,20.38
2016-12-04T00:47:30.623Z,20.38
2016-12-04T00:48:40.966Z,20.41
2016-12-04T00:49:50.668Z,20.39
2016-12-04T00:51:00.692Z,20.47
2016-12-04T00:52:11.058Z,20.36
2016-12-04T00:53:20.788Z,20.36
2016-12-04T00:54:30.822Z,20.41
2016-12-04T00:55:40.847Z,20.41
2016-12-04T00:56:51.252Z,20.43
2016-12-04T00:58:01.081Z,20.42
2016-12-04T00:59:10.800Z,20.47
2016-12-04T01:00:20.827Z,20.43
2016-12-04T01:01:30.840Z,20.5
2016-12-04T01:02:40.934Z,20.52
2016-12-04T01:03:51.312Z,20.43
2016-12-04T01:05:01.339Z,20.43
2016-12-04T01:06:11.683Z,20.5
2016-12-04T01:07:21.712Z,20.5
2016-12-04T01:08:31.752Z,20.5
2016-12-04T01:09:41.866Z,20.5
2016-12-04T01:10:51.960Z,20.47
2016-12-04T01:12:01.346Z,20.55
2016-12-04T01:13:11.434Z,20.54
2016-12-04T01:14:21.125Z,20.47
2016-12-04T01:15:31.528Z,20.42
2016-12-04T01:16:41.857Z,20.47
2016-12-04T01:17:51.923Z,20.47
2016-12-04T01:19:01.662Z,20.51
2016-12-04T01:20:11.994Z,20.41
2016-12-04T01:21:22.332Z,20.52
2016-12-04T01:22:32.031Z,20.55
2016-12-04T01:23:42.173Z,20.42
2016-12-04T01:24:52.170Z,20.55
2016-12-04T01:26:02.190Z,20.48
2016-12-04T01:27:12.222Z,20.47
2016-12-04T01:28:22.310Z,20.43
2016-12-04T01:29:32.328Z,20.43
2016-12-04T01:30:42.701Z,20.5
2016-12-04T01:31:52.412Z,20.38
2016-12-04T01:33:02.428Z,20.39
2016-12-04T01:34:12.758Z,20.38
2016-12-04T01:35:22.811Z,20.43
2016-12-04T01:36:32.822Z,20.52
2016-12-04T01:37:43.212Z,20.36
2016-12-04T01:38:53.549Z,20.5
2016-12-04T01:40:03.560Z,20.47
2016-12-04T01:41:13.270Z,20.48
2016-12-04T01:42:23.580Z,20.55
2016-12-04T01:43:33.281Z,20.52
2016-12-04T01:44:43.589Z,20.5
2016-12-04T01:45:53.299Z,20.5
2016-12-04T01:47:03.320Z,20.41
2016-12-04T01:48:13.320Z,20.48
2016-12-04T01:49:23.651Z,20.47
2016-12-04T01:50:33.981Z,20.57
2016-12-04T01:51:43.996Z,20.43
2016-12-04T01:52:53.714Z,20.5
2016-12-04T01:54:04.018Z,20.5
2016-12-04T01:55:14.345Z,20.59
2016-12-04T01:56:24.478Z,20.52
2016-12-04T01:57:34.527Z,20.47
2016-12-04T01:58:44.869Z,20.52
2016-12-04T01:59:54.895Z,20.54
2016-12-04T02:01:04.909Z,20.52
2016-12-04T02:02:14.941Z,20.43
2016-12-04T02:03:25.060Z,20.48
2016-12-04T02:04:35.116Z,20.61
2016-12-04T02:05:44.852Z,20.48
2016-12-04T02:06:54.879Z,20.47
2016-12-04T02:08:05.203Z,20.55
2016-12-04T02:09:15.528Z,20.51
2016-12-04T02:10:25.572Z,20.51
2016-12-04T02:11:35.303Z,20.43
2016-12-04T02:12:45.027Z,20.51
2016-12-04T02:13:55.372Z,20.43
2016-12-04T02:15:05.683Z,20.52
2016-12-04T02:16:16.014Z,20.43
2016-12-04T02:17:26.089Z,20.51
2016-12-04T02:18:36.521Z,20.43
2016-12-04T02:19:46.851Z,20.41
2016-12-04T02:20:56.929Z,20.42
2016-12-04T02:22:06.941Z,20.43
2016-12-04T02:23:16.950Z,20.48
2016-12-04T02:24:27.282Z,20.5
2016-12-04T02:25:37.598Z,20.43
2016-12-04T02:26:47.990Z,20.52
2016-12-04T02:27:57.490Z,20.51
2016-12-04T02:29:07.224Z,20.51
2016-12-04T02:30:17.032Z,20.51
2016-12-04T02:31:26.744Z,20.52
2016-12-04T02:32:37.067Z,20.52
2016-12-04T02:33:47.391Z,20.5
2016-12-04T02:34:57.405Z,20.51
2016-12-04T02:36:07.442Z,20.5
2016-12-04T02:37:17.509Z,20.52
2016-12-04T02:38:27.215Z,20.42
2016-12-04T02:39:37.235Z,20.55
2016-12-04T02:40:46.937Z,20.47
2016-12-04T02:41:56.340Z,20.54
2016-12-04T02:43:06.550Z,20.55
2016-12-04T02:44:16.904Z,20.43
2016-12-04T02:45:27.004Z,20.52
2016-12-04T02:46:37.484Z,20.55
2016-12-04T02:47:47.580Z,20.5
2016-12-04T02:48:58.039Z,20.48
2016-12-04T02:50:08.353Z,20.48
2016-12-04T02:51:18.049Z,20.51
2016-12-04T02:52:28.368Z,20.55
2016-12-04T02:53:37.919Z,20.52
2016-12-04T02:54:47.980Z,20.48
2016-12-04T02:55:57.980Z,20.47
2016-12-04T02:57:07.978Z,20.47
2016-12-04T02:58:18.008Z,20.47
2016-12-04T02:59:27.946Z,20.57
2016-12-04T03:00:37.653Z,20.47
2016-12-04T03:01:47.370Z,20.55
2016-12-04T03:02:57.542Z,20.43
2016-12-04T03:04:07.619Z,20.42
2016-12-04T03:05:17.724Z,20.48
2016-12-04T03:06:27.420Z,20.52
2016-12-04T03:07:37.448Z,20.52
2016-12-04T03:08:47.150Z,20.48
2016-12-04T03:09:57.457Z,20.54
2016-12-04T03:11:07.501Z,20.48
2016-12-04T03:12:17.233Z,20.52
2016-12-04T03:13:26.768Z,20.41
2016-12-04T03:14:36.753Z,20.5
2016-12-04T03:15:46.470Z,20.52
2016-12-04T03:16:56.157Z,20.54
2016-12-04T03:18:06.180Z,20.52
2016-12-04T03:19:15.941Z,20.48
2016-12-04T03:20:25.422Z,20.57
2016-12-04T03:21:35.223Z,20.42
2016-12-04T03:22:45.247Z,20.52
2016-12-04T03:23:54.957Z,20.41
2016-12-04T03:25:04.715Z,20.57
2016-12-04T03:26:15.049Z,20.48
2016-12-04T03:27:25.208Z,20.57
2016-12-04T03:28:34.933Z,20.61
2016-12-04T03:29:44.634Z,20.58
2016-12-04T03:30:54.654Z,20.5
2016-12-04T03:32:05.035Z,20.47
2016-12-04T03:33:15.079Z,20.47
2016-12-04T03:34:25.146Z,20.5
2016-12-04T03:35:34.542Z,20.52
2016-12-04T03:36:44.681Z,20.5
2016-12-04T03:37:55.032Z,20.52
2016-12-04T03:39:04.745Z,20.43
2016-12-04T03:40:14.752Z,20.52
2016-12-04T03:41:24.473Z,20.54
2016-12-04T03:42:34.478Z,20.5
2016-12-04T03:43:44.487Z,20.55
2016-12-04T03:44:54.167Z,20.47
2016-12-04T03:46:03.568Z,20.39
2016-12-04T03:47:13.579Z,20.48
2016-12-04T03:48:23.295Z,20.36
2016-12-04T03:49:33.004Z,20.42
2016-12-04T03:50:43.004Z,20.48
2016-12-04T03:51:52.457Z,20.41
2016-12-04T03:53:02.472Z,20.43
2016-12-04T03:54:12.492Z,20.43
2016-12-04T03:55:22.944Z,20.48
2016-12-04T03:56:32.388Z,20.51
2016-12-04T03:57:42.392Z,20.57
2016-12-04T03:58:51.804Z,20.59
2016-12-04T04:00:01.866Z,20.67
2016-12-04T04:01:11.882Z,20.61
2016-12-04T04:02:21.912Z,20.67
2016-12-04T04:03:32.239Z,20.7
2016-12-04T04:04:41.765Z,20.72
2016-12-04T04:05:51.165Z,20.8
2016-12-04T04:07:01.176Z,20.77
2016-12-04T04:08:11.293Z,20.77
2016-12-04T04:09:21.022Z,20.89
2016-12-04T04:10:31.340Z,20.91
2016-12-04T04:11:41.737Z,20.91
2016-12-04T04:12:51.746Z,20.89
2016-12-04T04:14:01.458Z,20.91
2016-12-04T04:15:11.154Z,20.85
2016-12-04T04:16:20.844Z,20.82
2016-12-04T04:17:31.343Z,20.76
2016-12-04T04:18:40.742Z,20.76
2016-12-04T04:19:50.474Z,20.74
2016-12-04T04:21:00.237Z,20.79
2016-12-04T04:22:10.303Z,20.84
2016-12-04T04:23:20.012Z,20.7
2016-12-04T04:24:30.036Z,20.73
2016-12-04T04:25:40.546Z,20.64
2016-12-04T04:26:50.872Z,20.58
2016-12-04T04:28:00.914Z,20.57
2016-12-04T04:29:11.014Z,20.59
2016-12-04T04:30:21.035Z,20.58
2016-12-04T04:31:30.799Z,20.43
2016-12-04T04:32:41.286Z,20.48
2016-12-04T04:33:51.387Z,20.48
2016-12-04T04:35:01.406Z,20.47
2016-12-04T04:36:11.414Z,20.47
2016-12-04T04:37:21.742Z,20.36
2016-12-04T04:38:31.027Z,20.39
2016-12-04T04:39:40.803Z,20.36
2016-12-04T04:40:50.957Z,20.32
2016-12-04T04:42:01.298Z,20.38
2016-12-04T04:43:11.056Z,20.33
2016-12-04T04:44:21.059Z,20.41
2016-12-04T04:45:31.157Z,20.38
2016-12-04T04:46:41.165Z,20.39
2016-12-04T04:47:51.498Z,20.41
2016-12-04T04:49:01.821Z,20.35
2016-12-04T04:50:11.834Z,20.33
2016-12-04T04:51:21.237Z,20.36
2016-12-04T04:52:31.263Z,20.39
2016-12-04T04:53:40.980Z,20.39
2016-12-04T04:54:51.275Z,20.36
2016-12-04T04:56:00.983Z,20.33
2016-12-04T04:57:11.304Z,20.35
2016-12-04T04:58:21.097Z,20.36
2016-12-04T04:59:31.182Z,20.35
2016-12-04T05:00:41.496Z,20.47
2016-12-04T05:01:51.940Z,20.47
2016-12-04T05:03:02.275Z,20.36
2016-12-04T05:04:12.385Z,20.42
2016-12-04T05:05:21.929Z,20.52
2016-12-04T05:06:31.955Z,20.47
2016-12-04T05:07:42.055Z,20.39
2016-12-04T05:08:52.381Z,20.5
2016-12-04T05:10:02.458Z,20.38
2016-12-04T05:11:12.160Z,20.38
2016-12-04T05:12:22.231Z,20.39
2016-12-04T05:13:32.258Z,20.48
2016-12-04T05:14:42.291Z,20.42
2016-12-04T05:15:52.355Z,20.33
2016-12-04T05:17:02.269Z,20.47
2016-12-04T05:18:12.264Z,20.32
2016-12-04T05:19:21.966Z,20.31
2016-12-04T05:20:31.685Z,20.42
2016-12-04T05:21:41.387Z,20.35
2016-12-04T05:22:51.720Z,20.42
2016-12-04T05:24:01.740Z,20.36
2016-12-04T05:25:12.168Z,20.39
2016-12-04T05:26:22.197Z,20.38
2016-12-04T05:27:32.271Z,20.38
2016-12-04T05:28:42.398Z,20.38
2016-12-04T05:29:52.800Z,20.36
2016-12-04T05:31:03.228Z,20.41
2016-12-04T05:32:12.927Z,20.35
2016-12-04T05:33:23.245Z,20.39
2016-12-04T05:34:32.998Z,20.39
2016-12-04T05:35:43.255Z,20.38
2016-12-04T05:36:53.374Z,20.33
2016-12-04T05:38:03.378Z,20.29
2016-12-04T05:39:13.189Z,20.35
2016-12-04T05:40:23.518Z,20.38
2016-12-04T05:41:33.835Z,20.36
2016-12-04T05:42:43.853Z,20.38
2016-12-04T05:43:54.197Z,20.32
2016-12-04T05:45:04.213Z,20.35
2016-12-04T05:46:14.227Z,20.32
2016-12-04T05:47:24.584Z,20.36
2016-12-04T05:48:35.005Z,20.41
2016-12-04T05:49:45.025Z,20.32
2016-12-04T05:50:55.043Z,20.39
2016-12-04T05:52:04.781Z,20.38
2016-12-04T05:53:15.088Z,20.41
2016-12-04T05:54:24.795Z,20.38
2016-12-04T05:55:34.584Z,20.33
2016-12-04T05:56:44.589Z,20.31
2016-12-04T05:57:53.993Z,20.33
2016-12-04T05:59:04.343Z,20.35
2016-12-04T06:00:14.080Z,20.33
2016-12-04T06:01:24.118Z,20.35
2016-12-04T06:02:33.517Z,20.38
2016-12-04T06:03:43.546Z,20.36
2016-12-04T06:04:53.543Z,20.38
2016-12-04T06:06:03.656Z,20.38
2016-12-04T06:07:13.689Z,20.35
2016-12-04T06:08:24.019Z,20.35
2016-12-04T06:09:34.444Z,20.36
2016-12-04T06:10:44.475Z,20.35
2016-12-04T06:11:54.192Z,20.32
2016-12-04T06:13:04.198Z,20.29
2016-12-04T06:14:14.547Z,20.36
2016-12-04T06:15:23.935Z,20.33
2016-12-04T06:16:34.256Z,20.29
2016-12-04T06:17:43.643Z,20.36
2016-12-04T06:18:53.744Z,20.36
2016-12-04T06:20:03.536Z,20.32
2016-12-04T06:21:13.575Z,20.36
2016-12-04T06:22:23.590Z,20.36
2016-12-04T06:23:33.907Z,20.35
2016-12-04T06:24:43.899Z,20.36
2016-12-04T06:25:54.327Z,20.35
2016-12-04T06:27:04.056Z,20.35
2016-12-04T06:28:13.768Z,20.36
2016-12-04T06:29:24.079Z,20.33
2016-12-04T06:30:33.816Z,20.39
2016-12-04T06:31:43.815Z,20.35
2016-12-04T06:32:53.902Z,20.38
2016-12-04T06:34:04.041Z,20.32
2016-12-04T06:35:13.520Z,20.38
2016-12-04T06:36:23.354Z,20.35
2016-12-04T06:37:33.369Z,20.35
2016-12-04T06:38:43.121Z,20.29
2016-12-04T06:39:53.327Z,20.39
2016-12-04T06:41:03.030Z,20.31
2016-12-04T06:42:12.755Z,20.36
2016-12-04T06:43:22.787Z,20.32
2016-12-04T06:44:32.480Z,20.32
2016-12-04T06:45:42.288Z,20.36
2016-12-04T06:46:51.686Z,20.36
2016-12-04T06:48:01.198Z,20.36
2016-12-04T06:49:10.626Z,20.33
2016-12-04T06:50:20.465Z,20.31
2016-12-04T06:51:30.219Z,20.36
2016-12-04T06:52:40.450Z,20.33
2016-12-04T06:53:49.592Z,20.31
2016-12-04T06:54:59.711Z,20.29
2016-12-04T06:56:09.399Z,20.33
2016-12-04T06:57:19.421Z,20.35
2016-12-04T06:58:29.427Z,20.29
2016-12-04T06:59:39.153Z,20.32
2016-12-04T07:00:49.495Z,20.24
2016-12-04T07:01:59.610Z,20.33
2016-12-04T07:03:09.340Z,20.31
2016-12-04T07:04:19.035Z,20.35
2016-12-04T07:05:29.068Z,20.32
2016-12-04T07:06:38.546Z,20.38
2016-12-04T07:07:48.564Z,20.32
2016-12-04T07:08:58.565Z,20.36
2016-12-04T07:10:09.004Z,20.38
2016-12-04T07:11:18.709Z,20.35
2016-12-04T07:12:28.458Z,20.32
2016-12-04T07:13:38.789Z,20.39
2016-12-04T07:14:48.875Z,20.42
2016-12-04T07:15:58.276Z,20.39
2016-12-04T07:17:07.684Z,20.32
2016-12-04T07:18:17.084Z,20.47
2016-12-04T07:19:27.099Z,20.38
2016-12-04T07:20:37.143Z,20.33
2016-12-04T07:21:46.917Z,20.31
2016-12-04T07:22:56.309Z,20.38
2016-12-04T07:24:06.003Z,20.41
2016-12-04T07:25:16.230Z,20.43
2016-12-04T07:26:26.378Z,20.43
2016-12-04T07:27:36.686Z,20.48
2016-12-04T07:28:47.009Z,20.51
2016-12-04T07:29:57.289Z,20.43
2016-12-04T07:31:07.157Z,20.43
2016-12-04T07:32:17.177Z,20.43
2016-12-04T07:33:27.225Z,20.55
2016-12-04T07:34:36.935Z,20.48
2016-12-04T07:35:47.322Z,20.5
2016-12-04T07:36:57.631Z,20.52
2016-12-04T07:38:07.697Z,20.48
2016-12-04T07:39:17.506Z,20.48
2016-12-04T07:40:27.849Z,20.48
2016-12-04T07:41:37.858Z,20.55
2016-12-04T07:42:48.156Z,20.52
2016-12-04T07:43:58.339Z,20.59
2016-12-04T07:45:08.641Z,20.51
2016-12-04T07:46:18.798Z,20.5
2016-12-04T07:47:28.493Z,20.48
2016-12-04T07:48:38.298Z,20.52
2016-12-04T07:49:48.347Z,20.55
2016-12-04T07:50:58.816Z,20.58
2016-12-04T07:52:09.152Z,20.48
2016-12-04T07:53:19.374Z,20.39
2016-12-04T07:54:29.091Z,20.36
2016-12-04T07:55:39.505Z,20.39
2016-12-04T07:56:49.841Z,20.38
2016-12-04T07:57:59.864Z,20.35
2016-12-04T07:59:09.910Z,20.39
2016-12-04T08:00:19.968Z,20.36
2016-12-04T08:01:29.988Z,20.35
2016-12-04T08:02:40.016Z,20.33
2016-12-04T08:03:50.047Z,20.33
2016-12-04T08:05:00.068Z,20.26
2016-12-04T08:06:10.089Z,20.26
2016-12-04T08:07:20.409Z,20.28
2016-12-04T08:08:30.439Z,20.35
2016-12-04T08:09:40.462Z,20.35
2016-12-04T08:10:49.861Z,20.24
2016-12-04T08:11:59.894Z,20.24
2016-12-04T08:13:09.975Z,20.24
2016-12-04T08:14:20.397Z,20.24
2016-12-04T08:15:30.799Z,20.26
2016-12-04T08:16:40.930Z,20.36
2016-12-04T08:17:51.516Z,20.26
2016-12-04T08:19:01.547Z,20.18
2016-12-04T08:20:11.660Z,20.24
2016-12-04T08:21:22.017Z,20.31
2016-12-04T08:22:32.327Z,20.18
2016-12-04T08:23:42.676Z,20.26
2016-12-04T08:24:53.127Z,20.29
2016-12-04T08:26:03.459Z,20.17
2016-12-04T08:27:13.749Z,20.29
2016-12-04T08:28:23.042Z,20.17
2016-12-04T08:29:33.440Z,20.11
2016-12-04T08:30:43.760Z,20.14
2016-12-04T08:31:54.219Z,20.14
2016-12-04T08:33:05.024Z,20.16
2016-12-04T08:34:15.188Z,20.14
2016-12-04T08:35:25.404Z,20.11
2016-12-04T08:36:39.307Z,20.14
2016-12-04T08:37:49.018Z,20.1
2016-12-04T08:38:59.352Z,20.1
2016-12-04T08:40:09.374Z,20.17
2016-12-04T08:41:19.205Z,20.1
2016-12-04T08:42:29.336Z,20.21
2016-12-04T08:43:39.041Z,20.2
2016-12-04T08:44:49.126Z,20.23
2016-12-04T08:45:59.153Z,20.28
2016-12-04T08:47:09.280Z,20.18
2016-12-04T08:48:19.311Z,20.11
2016-12-04T08:49:29.051Z,20.18
2016-12-04T08:50:39.391Z,20.2
2016-12-04T08:51:49.552Z,20.23
2016-12-04T08:52:59.571Z,20.06
2016-12-04T08:54:09.595Z,20.13
2016-12-04T08:55:19.618Z,20.23
2016-12-04T08:56:29.631Z,20.23
2016-12-04T08:57:39.361Z,20.24
2016-12-04T08:58:49.382Z,20.11
2016-12-04T08:59:59.740Z,20.2
2016-12-04T09:01:10.092Z,20.08
2016-12-04T09:02:19.854Z,20.13
2016-12-04T09:03:29.650Z,20.21
2016-12-04T09:04:39.097Z,20.24
2016-12-04T09:05:49.206Z,20.23
2016-12-04T09:06:58.964Z,20.21
2016-12-04T09:08:09.282Z,20.16
2016-12-04T09:09:19.622Z,20.29
2016-12-04T09:10:29.646Z,20.2
2016-12-04T09:11:39.652Z,20.31
2016-12-04T09:12:49.705Z,20.28
2016-12-04T09:13:59.844Z,20.32
2016-12-04T09:15:09.886Z,20.32
2016-12-04T09:16:20.354Z,20.31
2016-12-04T09:17:30.071Z,20.29
2016-12-04T09:18:39.820Z,20.2
2016-12-04T09:19:49.895Z,20.35
2016-12-04T09:20:59.938Z,20.31
2016-12-04T09:22:09.661Z,20.35
2016-12-04T09:23:20.108Z,20.35
2016-12-04T09:24:30.139Z,20.36
2016-12-04T09:25:40.169Z,20.33
2016-12-04T09:26:50.212Z,20.39
2016-12-04T09:28:00.271Z,20.41
2016-12-04T09:29:10.617Z,20.41
2016-12-04T09:30:20.662Z,20.41
2016-12-04T09:31:30.788Z,20.5
2016-12-04T09:32:41.111Z,20.51
2016-12-04T09:33:51.142Z,20.39
2016-12-04T09:35:01.226Z,20.42
2016-12-04T09:36:11.344Z,20.42
2016-12-04T09:37:21.773Z,20.42
2016-12-04T09:38:32.173Z,20.48
2016-12-04T09:39:42.520Z,20.48
2016-12-04T09:40:52.839Z,20.39
2016-12-04T09:42:02.863Z,20.39
2016-12-04T09:43:12.565Z,20.5
2016-12-04T09:44:22.281Z,20.48
2016-12-04T09:45:32.314Z,20.41
2016-12-04T09:46:42.700Z,20.47
2016-12-04T09:47:53.043Z,20.47
2016-12-04T09:49:03.070Z,20.48
2016-12-04T09:50:12.867Z,20.58
2016-12-04T09:51:22.075Z,20.51
2016-12-04T09:52:32.441Z,20.55
2016-12-04T09:53:42.800Z,20.47
2016-12-04T09:54:52.800Z,20.58
2016-12-04T09:56:02.564Z,20.52
2016-12-04T09:57:12.901Z,20.57
2016-12-04T09:58:22.942Z,20.55
2016-12-04T09:59:33.301Z,20.64
2016-12-04T10:00:43.363Z,20.62
2016-12-04T10:01:53.383Z,20.55
2016-12-04T10:03:03.723Z,20.62
2016-12-04T10:04:14.063Z,20.67
2016-12-04T10:05:24.096Z,20.66
2016-12-04T10:06:34.492Z,20.76
2016-12-04T10:07:44.711Z,20.72
2016-12-04T10:08:54.543Z,20.74
2016-12-04T10:10:04.650Z,20.77
2016-12-04T10:11:14.385Z,20.77
2016-12-04T10:12:25.095Z,20.77
2016-12-04T10:13:35.160Z,20.73
2016-12-04T10:14:44.887Z,20.73
2016-12-04T10:15:54.900Z,20.95
2016-12-04T10:17:05.307Z,20.89
2016-12-04T10:18:15.328Z,20.89
2016-12-04T10:19:25.033Z,20.85
2016-12-04T10:20:35.132Z,20.88
2016-12-04T10:21:44.871Z,20.95
2016-12-04T10:22:55.210Z,20.91
2016-12-04T10:24:05.277Z,20.92
2016-12-04T10:25:15.313Z,20.94
2016-12-04T10:26:25.114Z,20.95
2016-12-04T10:27:35.153Z,21.01
2016-12-04T10:28:44.884Z,21.01
2016-12-04T10:29:54.924Z,20.94
2016-12-04T10:31:04.974Z,20.88
2016-12-04T10:32:15.011Z,20.89
2016-12-04T10:33:25.204Z,20.85
2016-12-04T10:34:34.668Z,20.89
2016-12-04T10:35:44.711Z,20.85
2016-12-04T10:36:55.154Z,20.88
2016-12-04T10:38:05.185Z,20.91
2016-12-04T10:39:14.956Z,20.87
2016-12-04T10:40:24.746Z,20.91
2016-12-04T10:41:34.441Z,20.8
2016-12-04T10:42:44.811Z,20.73
2016-12-04T10:43:55.210Z,20.73
2016-12-04T10:45:05.233Z,20.74
2016-12-04T10:46:15.643Z,20.67
2016-12-04T10:47:25.684Z,20.76
2016-12-04T10:48:35.408Z,20.77
2016-12-04T10:49:45.765Z,20.74
2016-12-04T10:50:55.493Z,20.73
2016-12-04T10:52:05.536Z,20.73
2016-12-04T10:53:15.347Z,20.72
2016-12-04T10:54:25.107Z,20.73
2016-12-04T10:55:35.709Z,20.72
2016-12-04T10:56:46.021Z,20.73
2016-12-04T10:57:56.058Z,20.74
2016-12-04T10:59:05.476Z,20.72
2016-12-04T11:00:15.711Z,20.64
2016-12-04T11:01:27.703Z,20.7
2016-12-04T11:02:38.989Z,20.69
2016-12-04T11:03:49.524Z,20.7
2016-12-04T11:04:59.365Z,20.67
2016-12-04T11:06:09.644Z,20.67
2016-12-04T11:07:19.872Z,20.77
2016-12-04T11:08:30.225Z,20.7
2016-12-04T11:09:40.270Z,20.66
2016-12-04T11:10:50.691Z,20.73
2016-12-04T11:12:00.722Z,20.77
2016-12-04T11:13:10.126Z,20.77
2016-12-04T11:14:20.185Z,20.89
2016-12-04T11:15:30.194Z,20.76
2016-12-04T11:16:40.536Z,20.79
2016-12-04T11:17:50.263Z,20.88
2016-12-04T11:19:00.298Z,20.89
2016-12-04T11:20:10.324Z,20.89
2016-12-04T11:21:20.053Z,20.88
2016-12-04T11:22:29.650Z,20.89
2016-12-04T11:23:39.989Z,20.91
2016-12-04T11:24:50.019Z,20.85
2016-12-04T11:26:00.383Z,20.89
2016-12-04T11:27:10.104Z,20.85
2016-12-04T11:28:19.994Z,20.89
2016-12-04T11:29:30.373Z,20.92
2016-12-04T11:30:40.394Z,20.94
2016-12-04T11:31:50.817Z,20.91
2016-12-04T11:33:01.152Z,20.99
2016-12-04T11:34:11.484Z,20.89
2016-12-04T11:35:21.523Z,20.97
2016-12-04T11:36:31.548Z,20.95
2016-12-04T11:37:41.684Z,20.95
2016-12-04T11:38:52.023Z,21.01
2016-12-04T11:40:02.052Z,20.95
2016-12-04T11:41:11.453Z,21.09
2016-12-04T11:42:21.914Z,20.99
2016-12-04T11:43:32.245Z,21.01
2016-12-04T11:44:42.592Z,21.03
2016-12-04T11:45:52.782Z,21.07
2016-12-04T11:47:02.816Z,21.1
2016-12-04T11:48:13.206Z,21.09
2016-12-04T11:49:23.384Z,21.24
2016-12-04T11:50:33.414Z,21.19
2016-12-04T11:51:43.753Z,21.25
2016-12-04T11:52:54.082Z,21.09
2016-12-04T11:54:04.424Z,21.16
2016-12-04T11:55:14.455Z,21.32
2016-12-04T11:56:24.224Z,21.35
2016-12-04T11:57:35.395Z,21.17
2016-12-04T11:58:46.315Z,21.12
2016-12-04T11:59:56.694Z,21.04
2016-12-04T12:01:06.723Z,21.06
2016-12-04T12:02:17.140Z,21.03
2016-12-04T12:03:27.214Z,21.04
2016-12-04T12:04:37.740Z,20.99
2016-12-04T12:05:47.774Z,20.95
2016-12-04T12:06:58.140Z,20.89
2016-12-04T12:08:08.460Z,20.91
2016-12-04T12:09:18.811Z,20.91
2016-12-04T12:10:28.209Z,20.91
2016-12-04T12:11:38.588Z,20.84
2016-12-04T12:12:48.635Z,20.85
2016-12-04T12:13:58.983Z,20.89
2016-12-04T12:15:09.065Z,20.85
2016-12-04T12:16:18.857Z,20.77
2016-12-04T12:17:28.879Z,20.87
2016-12-04T12:18:38.624Z,20.76
2016-12-04T12:19:48.405Z,20.8
2016-12-04T12:20:58.461Z,20.74
2016-12-04T12:22:07.946Z,20.79
2016-12-04T12:23:17.951Z,20.79
2016-12-04T12:24:28.009Z,20.8
2016-12-04T12:25:37.891Z,20.79
2016-12-04T12:26:48.284Z,20.87
2016-12-04T12:27:58.310Z,20.79
2016-12-04T12:29:07.915Z,20.94
2016-12-04T12:30:17.968Z,20.89
2016-12-04T12:31:28.434Z,20.88
2016-12-04T12:32:38.858Z,20.91
2016-12-04T12:33:48.923Z,20.87
2016-12-04T12:34:58.954Z,20.88
2016-12-04T12:36:08.687Z,20.92
2016-12-04T12:37:18.799Z,20.85
2016-12-04T12:38:28.863Z,20.94
2016-12-04T12:39:39.376Z,20.99
2016-12-04T12:40:49.773Z,21.01
2016-12-04T12:41:59.633Z,20.95
2016-12-04T12:43:08.717Z,20.95
2016-12-04T12:44:18.448Z,20.99
2016-12-04T12:45:28.183Z,20.95
2016-12-04T12:46:38.212Z,21.01
2016-12-04T12:47:47.978Z,20.98
2016-12-04T12:48:57.442Z,20.95
2016-12-04T12:50:07.483Z,20.99
2016-12-04T12:51:17.582Z,20.98
2016-12-04T12:52:28.092Z,20.97
2016-12-04T12:53:38.574Z,21.01
2016-12-04T12:54:48.331Z,21.04
2016-12-04T12:55:58.955Z,20.95
2016-12-04T12:57:08.772Z,20.99
2016-12-04T12:58:18.817Z,20.98
2016-12-04T12:59:29.191Z,20.97
2016-12-04T13:00:38.920Z,20.98
2016-12-04T13:01:48.972Z,20.97
2016-12-04T13:02:58.984Z,20.95
2016-12-04T13:04:08.720Z,20.94
2016-12-04T13:05:18.832Z,21.03
2016-12-04T13:06:28.841Z,20.89
2016-12-04T13:07:38.868Z,20.95
2016-12-04T13:08:48.891Z,20.85
2016-12-04T13:09:58.455Z,20.88
2016-12-04T13:11:08.889Z,20.91
2016-12-04T13:12:18.913Z,20.79
2016-12-04T13:13:28.322Z,20.89
2016-12-04T13:14:38.439Z,20.98
2016-12-04T13:15:48.844Z,20.77
2016-12-04T13:16:58.882Z,20.87
2016-12-04T13:18:08.604Z,20.8
2016-12-04T13:19:18.699Z,20.79
2016-12-04T13:20:28.774Z,20.73
2016-12-04T13:21:38.926Z,20.79
2016-12-04T13:22:48.956Z,20.87
2016-12-04T13:23:58.666Z,20.82
2016-12-04T13:25:08.498Z,20.73
2016-12-04T13:26:18.498Z,20.74
2016-12-04T13:27:28.512Z,20.8
2016-12-04T13:28:38.411Z,20.74
2016-12-04T13:29:48.550Z,20.74
2016-12-04T13:30:58.903Z,20.73
2016-12-04T13:32:08.944Z,20.73
2016-12-04T13:33:19.280Z,20.67
2016-12-04T13:34:29.046Z,20.64
2016-12-04T13:35:39.103Z,20.76
2016-12-04T13:36:49.135Z,20.64
2016-12-04T13:37:59.158Z,20.69
2016-12-04T13:39:09.186Z,20.69
2016-12-04T13:40:19.531Z,20.74
2016-12-04T13:41:29.576Z,20.74
2016-12-04T13:42:39.347Z,20.76
2016-12-04T13:43:49.710Z,20.72
2016-12-04T13:45:00.084Z,20.74
2016-12-04T13:46:10.417Z,20.87
2016-12-04T13:47:21.106Z,20.74
2016-12-04T13:48:31.449Z,20.7
2016-12-04T13:49:41.526Z,20.7
2016-12-04T13:50:51.586Z,20.77
2016-12-04T13:52:01.306Z,20.76
2016-12-04T13:53:11.357Z,20.8
2016-12-04T13:54:21.781Z,20.77
2016-12-04T13:55:31.510Z,20.89
2016-12-04T13:56:41.855Z,20.76
2016-12-04T13:57:51.900Z,20.77
2016-12-04T13:59:01.978Z,20.91
2016-12-04T14:00:11.680Z,20.88
2016-12-04T14:01:21.712Z,20.87
2016-12-04T14:02:31.425Z,20.87
2016-12-04T14:03:41.562Z,20.88
2016-12-04T14:04:51.599Z,20.91
2016-12-04T14:06:02.093Z,20.85
2016-12-04T14:07:12.182Z,20.91
2016-12-04T14:08:22.546Z,20.85
2016-12-04T14:09:32.879Z,20.88
2016-12-04T14:10:43.265Z,20.85
2016-12-04T14:11:53.296Z,20.84
2016-12-04T14:13:03.724Z,20.87
2016-12-04T14:14:13.845Z,20.88
2016-12-04T14:15:23.940Z,20.91
2016-12-04T14:16:34.260Z,20.85
2016-12-04T14:17:44.598Z,20.88
2016-12-04T14:18:54.632Z,20.85
2016-12-04T14:20:04.366Z,20.91
2016-12-04T14:21:14.564Z,20.88
2016-12-04T14:22:24.311Z,20.94
2016-12-04T14:23:34.650Z,20.85
2016-12-04T14:24:45.308Z,20.85
2016-12-04T14:25:55.813Z,20.89
2016-12-04T14:27:06.157Z,20.82
2016-12-04T14:28:16.496Z,20.77
2016-12-04T14:29:26.527Z,20.89
2016-12-04T14:30:36.849Z,20.91
2016-12-04T14:31:46.573Z,20.88
2016-12-04T14:32:56.607Z,20.8
2016-12-04T14:34:06.626Z,20.85
2016-12-04T14:35:17.069Z,20.91
2016-12-04T14:36:27.396Z,20.87
2016-12-04T14:37:37.749Z,20.88
2016-12-04T14:38:48.116Z,20.91
2016-12-04T14:39:57.838Z,20.76
2016-12-04T14:41:07.247Z,20.76
2016-12-04T14:42:16.964Z,20.82
2016-12-04T14:43:27.014Z,20.73
2016-12-04T14:44:36.457Z,20.87
2016-12-04T14:45:46.712Z,20.77
2016-12-04T14:46:56.413Z,20.84
2016-12-04T14:48:07.046Z,20.76
2016-12-04T14:49:17.079Z,20.76
2016-12-04T14:50:27.443Z,20.77
2016-12-04T14:51:37.183Z,20.76
2016-12-04T14:52:47.637Z,20.76
2016-12-04T14:53:57.357Z,20.79
2016-12-04T14:55:07.075Z,20.8
2016-12-04T14:56:16.496Z,20.84
2016-12-04T14:57:26.590Z,20.85
2016-12-04T14:58:37.111Z,20.74
2016-12-04T14:59:47.169Z,20.79
2016-12-04T15:00:56.898Z,20.8
2016-12-04T15:02:07.278Z,20.72
2016-12-04T15:03:17.620Z,20.73
2016-12-04T15:04:27.640Z,20.76